旭川空港の過去48時間の天気

旭川空港 (Asahikawa (Civil))

現在時刻: 1/23 13:17 JST (1/23 04:17 UTC) 以下の時間は現地時間です。

過去48時間のMETAR気象情報
時間 風向 風速(m/s) 視程 気温(℃) 湿度(%) 気圧(hPa) 天気現象
23 13:00 北東 2 10km以上 -8 73 993
23 12:00 不定 1 10km以上 -11 79 996
23 11:00 西 2 10km以上 -12 78 998
23 10:00 北西 2 10km以上 -13 92 1000
23 09:00 不定 1 10km以上 -14 92 1003
23 08:00 不定 1 10km以上 -16 92 1004
23 07:00 不定 1 10km以上 -16 85 1006
23 06:40 不定 1 10km以上 -16 85 1006
22 20:00 南南東 3 10km以上 -14 78 1017
22 19:00 南南西 4 10km以上 -8 62 1016
22 18:00 5 10km以上 -8 79 1016
22 17:00 5 7,000m -8 86 1016 弱いしゅう雪
22 16:27 5 5,000m -8 86 1016 弱いしゅう雪
22 16:00 6 3,200m -8 86 1016 弱いしゅう雪
22 15:38 南南東 5 3,100m -8 86 1016 弱いしゅう雪
22 15:19 南南東 5 4,900m -8 86 1016 弱いしゅう雪
22 15:00 南南東 4 5,000m -8 86 1016 弱いしゅう雪
22 14:00 4 5,000m -8 86 1016 弱いしゅう雪
22 13:00 5 4,500m -8 79 1016 弱いしゅう雪
22 12:37 5 4,900m -8 86 1016 弱いしゅう雪
22 12:00 4 10km以上 -7 73 1016 弱いしゅう雪
22 11:48 4 5,000m -8 79 1017 弱いしゅう雪
22 11:31 5 2,300m -8 79 1017 弱いしゅう雪
22 11:25 6 3,100m -8 79 1017 弱いしゅう雪
22 11:13 6 4,900m -8 79 1017 弱いしゅう雪
22 11:00 南南東 6 6,000m -8 79 1017 弱いしゅう雪
22 10:34 南南東 6 3,200m -9 85 1017 弱いしゅう雪
22 10:00 南南東 6 3,000m -9 79 1017 弱いしゅう雪
22 09:46 南南東 6 2,400m -9 79 1017 弱いしゅう雪
22 09:12 南南東 5 2,300m -10 85 1017 弱いしゅう雪
22 09:00 南南東 5 2,500m -10 85 1017 弱いしゅう雪
22 08:38 南南東 5 2,400m -10 85 1017 弱いしゅう雪
22 08:24 南南東 6 1,600m -10 85 1017 弱いしゅう雪
22 08:16 南南東 5 1,000m -10 85 1017 弱いしゅう雪
22 08:00 南南東 5 900m -10 85 1017 しゅう雪
22 07:39 4 2,300m -11 92 1016 弱いしゅう雪
22 07:30 5 3,100m -11 85 1016 弱いしゅう雪
22 07:00 4 10km以上 -12 85 1016 弱いしゅう雪
22 06:40 5 10km以上 -12 85 1016 弱いしゅう雪
RJEC 230400Z 04004KT 340V090 9999 FEW025 SCT180 BKN/// M08/M12 Q0993
RJEC 230300Z VRB02KT 9999 FEW030 SCT100 M11/M14 Q0996
RJEC 230200Z 28003KT 240V320 9999 FEW030 SCT120 BKN/// M12/M15 Q0998
RJEC 230100Z 32003KT 9999 FEW015 SCT100 BKN150 M13/M14 Q1000
RJEC 230000Z VRB02KT 9999 FEW015 SCT025 BKN100 M14/M15 Q1003
RJEC 222300Z VRB01KT 9999 FEW020 SCT080 BKN/// M16/M17 Q1004
RJEC 222200Z VRB02KT 9999 FEW010 SCT080 M16/M18 Q1006
RJEC 222140Z VRB02KT 9999 FEW008 SCT020 BKN080 M16/M18 Q1006 RMK 1ST008 3CU020 5AC080 A2972
RJEC 221100Z 16006KT 9999 FEW010 SCT060 BKN/// M14/M17 Q1017
RJEC 221000Z 20008KT 9999 FEW010 SCT060 BKN070 M08/M14 Q1016
RJEC 220900Z 18010KT 9999 FEW010 SCT020 BKN050 M08/M11 Q1016
RJEC 220800Z 18010KT 7000 -SHSN FEW005 SCT015 BKN025 M08/M10 Q1016
RJEC 220727Z 17010KT 5000 -SHSN FEW005 SCT015 BKN030 M08/M10 Q1016 RMK 1ST005 3ST015 6CU030 A3001
RJEC 220700Z 17012KT 3200 -SHSN FEW005 SCT015 BKN025 M08/M10 Q1016
RJEC 220638Z 16010KT 3100 -SHSN FEW005 SCT015 BKN025 M08/M10 Q1016 RMK 1ST005 3ST015 6CU025 A3002
RJEC 220619Z 16009KT 4900 -SHSN FEW005 SCT015 BKN030 M08/M10 Q1016 RMK 1ST005 3ST015 6CU030 A3002
RJEC 220600Z 16008KT 5000 -SHSN FEW005 SCT018 BKN030 M08/M10 Q1016
RJEC 220500Z 19008KT 5000 -SHSN FEW005 SCT018 BKN030 M08/M10 Q1016
RJEC 220400Z 17010KT 4500 -SHSN FEW005 SCT018 BKN025 M08/M11 Q1016
RJEC 220337Z 18009KT 4900 -SHSN FEW005 SCT018 BKN025 M08/M10 Q1016 RMK 1ST005 3ST018 5CU025 A3002
RJEC 220300Z 19007KT 150V250 9999 -SHSN FEW008 SCT025 BKN/// M07/M11 Q1016
RJEC 220248Z 18007KT 5000 -SHSN FEW005 SCT018 BKN025 M08/M11 Q1017 RMK 1ST005 3ST018 6CU025 A3003
RJEC 220231Z 17010KT 2300 R34/2000N -SHSN FEW003 SCT010 BKN015 M08/M11 Q1017 RMK 1ST003 3ST010 6ST015 A3003
RJEC 220225Z 17011KT 3100 -SHSN FEW003 SCT012 BKN018 M08/M11 Q1017 RMK 1ST003 3ST012 6ST018 A3003
RJEC 220213Z 17011KT 4900 -SHSN FEW005 SCT015 BKN020 M08/M11 Q1017 RMK 1ST005 3ST015 6CU020 A3003
RJEC 220200Z 16011KT 6000 -SHSN FEW008 SCT018 BKN025 M08/M11 Q1017
RJEC 220134Z 16012KT 3200 -SHSN FEW008 SCT015 BKN020 M09/M11 Q1017 RMK 1ST008 3ST015 6CU020 A3004
RJEC 220100Z 16011KT 3000 R34/2000N -SHSN FEW006 SCT012 BKN018 M09/M12 Q1017
RJEC 220046Z 16011KT 2400 R34/1600VP2000U -SHSN FEW006 SCT012 BKN018 M09/M12 Q1017 RMK 1ST006 3ST012 6ST018 A3004
RJEC 220012Z 16010KT 2300 R34/1900D -SHSN FEW005 SCT010 BKN015 M10/M12 Q1017 RMK 1ST005 3ST010 6ST015 A3004
RJEC 220000Z 16010KT 2500 -SHSN FEW005 SCT010 BKN015 M10/M12 Q1017
RJEC 212338Z 16010KT 2400 R34/1400VP2000U -SHSN FEW005 SCT010 BKN015 M10/M12 Q1017 RMK 2ST005 4ST010 7ST015 A3004
RJEC 212324Z 15011KT 1600 R34/1400VP2000U -SHSN FEW003 SCT008 BKN012 M10/M12 Q1017 RMK 2ST003 4ST008 7ST012 A3004
RJEC 212316Z 15010KT 1000 R34/1300N -SHSN FEW003 SCT008 BKN012 M10/M12 Q1017 RMK 2ST003 4ST008 7ST012 A3004
RJEC 212300Z 16009KT 0900 R34/0800V1800D SHSN VV008 M10/M12 Q1017
RJEC 212239Z 19007KT 2300 R34/2000N -SHSN FEW005 SCT010 BKN015 M11/M12 Q1016 RMK 1ST005 3ST010 6ST015 A3003
RJEC 212230Z 17010KT 3100 R34/2000N -SHSN FEW005 SCT015 BKN020 M11/M13 Q1016 RMK 1ST005 4ST015 6CU020 A3002
RJEC 212200Z 17008KT 9999 -SHSN FEW008 SCT015 BKN020 M12/M14 Q1016
RJEC 212140Z 18009KT 9999 -SHSN FEW010 SCT015 BKN020 M12/M14 Q1016 RMK 1ST010 3ST015 5CU020 A3001